createdAt,value
2023-02-03T00:00:55.856Z,82.97
2023-02-03T00:05:59.374Z,83.39
2023-02-03T00:11:04.274Z,83.25
2023-02-03T00:16:08.400Z,83.45
2023-02-03T00:21:11.827Z,83.46
2023-02-03T00:26:18.195Z,83.65
2023-02-03T00:31:25.504Z,83.22
2023-02-03T00:36:29.139Z,83.22
2023-02-03T00:41:33.979Z,83.13
2023-02-03T00:46:37.406Z,83.16
2023-02-03T00:51:40.850Z,83.10
2023-02-03T00:56:45.791Z,83.15
2023-02-03T01:01:51.149Z,83.22
2023-02-03T01:06:57.606Z,83.64
2023-02-03T01:12:02.610Z,83.80
2023-02-03T01:17:06.456Z,83.75
2023-02-03T01:22:09.846Z,83.85
2023-02-03T01:27:14.934Z,83.37
2023-02-03T01:32:18.430Z,83.24
2023-02-03T01:37:21.805Z,83.23
2023-02-03T01:42:26.906Z,83.15
2023-02-03T01:47:34.806Z,83.20
2023-02-03T01:52:40.520Z,83.29
2023-02-03T01:57:50.153Z,83.53
2023-02-03T02:02:54.351Z,83.59
2023-02-03T02:08:00.602Z,83.92
2023-02-03T02:13:07.091Z,84.01
2023-02-03T02:18:25.266Z,84.03
2023-02-03T02:24:00.673Z,83.80
2023-02-03T02:29:28.841Z,83.89
2023-02-03T02:34:43.523Z,83.62
2023-02-03T02:39:54.951Z,83.83
2023-02-03T02:45:06.708Z,83.71
2023-02-03T02:50:16.129Z,83.40
2023-02-03T02:55:24.844Z,83.36
2023-02-03T03:00:32.368Z,83.33
2023-02-03T03:05:38.089Z,83.63
2023-02-03T03:10:43.326Z,83.40
2023-02-03T03:15:47.356Z,83.73
2023-02-03T03:20:54.720Z,83.76
2023-02-03T03:26:06.054Z,83.21
2023-02-03T03:31:09.729Z,83.56
2023-02-03T03:36:23.676Z,83.15
2023-02-03T03:41:35.073Z,83.32
2023-02-03T03:46:44.795Z,83.25
2023-02-03T03:51:54.386Z,83.27
2023-02-03T03:57:02.144Z,83.19
2023-02-03T04:02:05.875Z,83.36
2023-02-03T04:07:10.765Z,83.34
2023-02-03T04:12:21.396Z,83.07
2023-02-03T04:17:25.109Z,83.20
2023-02-03T04:22:29.862Z,83.13
2023-02-03T04:27:33.748Z,83.15
2023-02-03T04:32:37.473Z,83.36
2023-02-03T04:37:42.866Z,83.87
2023-02-03T04:42:46.256Z,83.45
2023-02-03T04:47:54.499Z,83.31
2023-02-03T04:53:00.585Z,83.41
2023-02-03T04:58:04.037Z,83.43
2023-02-03T05:03:07.741Z,83.88
2023-02-03T05:08:12.574Z,83.69
2023-02-03T05:13:16.422Z,83.66
2023-02-03T05:18:19.869Z,83.92
2023-02-03T05:23:24.705Z,84.13
2023-02-03T05:28:28.093Z,84.02
2023-02-03T05:33:31.912Z,84.72
2023-02-03T05:38:36.668Z,84.55
2023-02-03T05:43:40.088Z,84.58
2023-02-03T05:48:43.457Z,84.58
2023-02-03T05:53:48.611Z,84.66
2023-02-03T05:58:54.028Z,84.92
2023-02-03T06:03:57.824Z,85.07
2023-02-03T06:09:04.795Z,84.30
2023-02-03T06:14:08.427Z,83.60
2023-02-03T06:19:11.956Z,83.11
2023-02-03T06:24:16.817Z,82.96
2023-02-03T06:29:20.327Z,83.02
2023-02-03T06:34:23.662Z,82.80
2023-02-03T06:39:28.852Z,82.53
2023-02-03T06:44:32.632Z,81.69
2023-02-03T06:49:36.059Z,80.98
2023-02-03T06:54:40.979Z,80.51
2023-02-03T06:59:44.391Z,80.03
2023-02-03T07:04:47.772Z,79.83
2023-02-03T07:09:52.847Z,79.64
2023-02-03T07:14:56.703Z,79.25
2023-02-03T07:20:00.458Z,78.96
2023-02-03T07:25:05.731Z,79.21
2023-02-03T07:30:10.608Z,78.70
2023-02-03T07:35:14.014Z,78.75
2023-02-03T07:40:19.652Z,78.61
2023-02-03T07:45:24.924Z,78.66
2023-02-03T07:50:28.767Z,77.08
2023-02-03T07:55:34.458Z,76.59
2023-02-03T08:00:37.936Z,75.94
2023-02-03T08:05:41.397Z,75.57
2023-02-03T08:10:46.482Z,74.95
2023-02-03T08:15:50.055Z,75.04
2023-02-03T08:20:53.498Z,74.66
2023-02-03T08:25:58.331Z,74.20
2023-02-03T08:31:02.213Z,73.24
2023-02-03T08:36:06.293Z,72.77
2023-02-03T08:41:13.497Z,72.47
2023-02-03T08:46:16.946Z,72.70
2023-02-03T08:51:20.953Z,70.57
2023-02-03T08:56:27.567Z,70.16
2023-02-03T09:01:31.288Z,70.48
2023-02-03T09:06:34.727Z,70.30
2023-02-03T09:11:39.945Z,68.67
2023-02-03T09:16:43.524Z,68.35
2023-02-03T09:21:49.177Z,68.68
2023-02-03T09:26:55.199Z,66.19
2023-02-03T09:31:58.673Z,67.58
2023-02-03T09:37:02.324Z,65.99
2023-02-03T09:42:28.595Z,65.11
2023-02-03T09:47:37.751Z,63.04
2023-02-03T09:52:44.332Z,62.94
2023-02-03T09:57:57.056Z,62.39
2023-02-03T10:03:07.342Z,62.72
2023-02-03T10:08:23.280Z,59.65
2023-02-03T10:13:36.667Z,58.78
2023-02-03T10:18:45.959Z,58.40
2023-02-03T10:23:51.330Z,57.94
2023-02-03T10:28:58.048Z,56.13
2023-02-03T10:34:06.206Z,55.99
2023-02-03T10:39:21.561Z,55.73
2023-02-03T10:44:33.367Z,57.98
2023-02-03T10:49:36.963Z,57.90
2023-02-03T10:54:40.689Z,57.33
2023-02-03T10:59:47.722Z,58.36
2023-02-03T11:05:10.984Z,59.44
2023-02-03T11:10:36.204Z,56.76
2023-02-03T11:15:46.158Z,54.63
2023-02-03T11:20:49.624Z,57.01
2023-02-03T11:25:53.848Z,58.41
2023-02-03T11:30:59.928Z,59.55
2023-02-03T11:36:05.558Z,60.08
2023-02-03T11:41:18.504Z,56.55
2023-02-03T11:46:23.737Z,57.39
2023-02-03T11:51:41.180Z,58.81
2023-02-03T11:57:01.743Z,61.35
2023-02-03T12:02:33.833Z,61.37
2023-02-03T12:08:02.043Z,62.44
2023-02-03T12:13:18.303Z,61.13
2023-02-03T12:18:33.753Z,60.28
2023-02-03T12:23:48.055Z,61.21
2023-02-03T12:28:57.645Z,61.57
2023-02-03T12:34:13.020Z,62.19
2023-02-03T12:39:23.159Z,62.82
2023-02-03T12:44:32.558Z,63.54
2023-02-03T12:49:43.581Z,63.75
2023-02-03T12:54:53.835Z,63.47
2023-02-03T13:00:19.912Z,61.33
2023-02-03T13:05:30.212Z,62.92
2023-02-03T13:10:39.909Z,61.43
2023-02-03T13:15:48.211Z,62.81
2023-02-03T13:20:53.660Z,63.56
2023-02-03T13:26:14.775Z,64.28
2023-02-03T13:31:33.361Z,63.68
2023-02-03T13:37:13.833Z,63.02
2023-02-03T13:42:26.527Z,63.14
2023-02-03T13:47:32.909Z,62.71
2023-02-03T13:52:43.316Z,63.69
2023-02-03T13:57:53.673Z,64.05
2023-02-03T14:02:58.099Z,64.48
2023-02-03T14:08:36.633Z,64.81
2023-02-03T14:13:41.540Z,65.35
2023-02-03T14:18:46.617Z,65.77
2023-02-03T14:24:00.300Z,65.61
2023-02-03T14:29:06.253Z,66.53
2023-02-03T14:34:15.349Z,66.93
2023-02-03T14:40:15.802Z,67.38
2023-02-03T14:45:33.177Z,67.92
2023-02-03T14:50:53.485Z,68.57
2023-02-03T14:56:11.589Z,69.59
2023-02-03T15:02:08.053Z,70.18
2023-02-03T15:07:11.426Z,72.16
2023-02-03T15:12:18.283Z,71.53
2023-02-03T15:17:25.859Z,71.29
2023-02-03T15:22:31.167Z,72.73
2023-02-03T15:27:34.826Z,73.02
2023-02-03T15:32:45.979Z,74.30
2023-02-03T15:37:55.106Z,74.28
2023-02-03T15:43:01.929Z,74.65
2023-02-03T15:48:13.693Z,74.49
2023-02-03T15:53:22.184Z,74.89
2023-02-03T15:58:29.277Z,74.97
2023-02-03T16:03:41.732Z,75.20
2023-02-03T16:08:48.227Z,74.89
2023-02-03T16:13:52.315Z,74.73
2023-02-03T16:19:00.150Z,76.13
2023-02-03T16:24:05.268Z,76.01
2023-02-03T16:29:32.826Z,75.34
2023-02-03T16:34:55.208Z,74.77
2023-02-03T16:40:17.115Z,74.93
2023-02-03T16:45:37.927Z,74.93
2023-02-03T16:50:54.146Z,75.33
2023-02-03T16:55:59.226Z,74.73
2023-02-03T17:01:05.666Z,75.30
2023-02-03T17:06:13.039Z,75.95
2023-02-03T17:11:18.445Z,75.31
2023-02-03T17:16:24.668Z,75.62
2023-02-03T17:21:31.225Z,75.51
2023-02-03T17:26:34.971Z,75.97
2023-02-03T17:31:38.391Z,77.30
2023-02-03T17:36:43.230Z,77.41
2023-02-03T17:57:51.451Z,77.26
2023-02-03T18:02:56.117Z,77.66
2023-02-03T18:08:08.908Z,77.94
2023-02-03T18:13:23.638Z,77.50
2023-02-03T18:18:28.157Z,76.75
2023-02-03T18:23:33.371Z,75.76
2023-02-03T18:28:37.086Z,75.18
2023-02-03T18:33:40.709Z,75.71
2023-02-03T18:38:47.400Z,76.93
2023-02-03T18:43:51.426Z,76.86
2023-02-03T18:48:56.219Z,76.54
2023-02-03T18:54:01.280Z,76.71
2023-02-03T18:59:10.096Z,78.26
2023-02-03T19:04:14.230Z,78.35
2023-02-03T19:09:23.787Z,78.17
2023-02-03T19:14:28.502Z,79.70
2023-02-03T19:19:31.989Z,80.69
2023-02-03T19:24:36.843Z,81.04
2023-02-03T19:29:40.329Z,81.23
2023-02-03T19:34:43.722Z,81.31
2023-02-03T19:39:50.475Z,81.64
2023-02-03T19:44:53.968Z,81.42
2023-02-03T19:50:01.719Z,81.25
2023-02-03T19:55:08.944Z,80.48
2023-02-03T20:00:15.062Z,79.71
2023-02-03T20:05:20.299Z,78.99
2023-02-03T20:10:26.476Z,78.29
2023-02-03T20:15:29.996Z,77.48
2023-02-03T20:20:34.281Z,78.11
2023-02-03T20:25:39.225Z,78.47
2023-02-03T20:30:43.417Z,78.02
2023-02-03T20:35:46.851Z,77.57
2023-02-03T20:40:51.987Z,77.44
2023-02-03T20:45:55.865Z,77.56
2023-02-03T20:50:59.262Z,78.02
2023-02-03T20:56:08.473Z,78.30
2023-02-03T21:01:16.555Z,78.38
2023-02-03T21:06:21.532Z,78.88
2023-02-03T21:11:27.512Z,79.49
2023-02-03T21:16:39.022Z,80.10
2023-02-03T21:21:44.033Z,80.41
2023-02-03T21:26:49.722Z,80.59
2023-02-03T21:31:54.521Z,80.12
2023-02-03T21:36:59.114Z,79.99
2023-02-03T21:42:18.784Z,80.08
2023-02-03T21:47:22.549Z,79.99
2023-02-03T21:52:26.055Z,79.16
2023-02-03T21:57:30.893Z,78.58
2023-02-03T22:02:56.592Z,77.95
2023-02-03T22:08:00.096Z,77.08
2023-02-03T22:13:04.875Z,76.53
2023-02-03T22:18:08.625Z,75.97
2023-02-03T22:23:12.344Z,75.68
2023-02-03T22:28:17.638Z,75.24
2023-02-03T22:33:21.139Z,74.66
2023-02-03T22:38:24.767Z,74.69
2023-02-03T22:43:31.151Z,74.57
2023-02-03T22:48:35.244Z,74.19
2023-02-03T22:53:39.917Z,73.67
2023-02-03T22:58:44.891Z,73.54
2023-02-03T23:03:48.220Z,73.64
2023-02-03T23:08:51.729Z,73.71
2023-02-03T23:13:56.632Z,73.44
2023-02-03T23:18:59.996Z,73.64
2023-02-03T23:24:03.396Z,73.49
2023-02-03T23:29:08.205Z,73.21
2023-02-03T23:34:29.150Z,73.17
2023-02-03T23:39:32.501Z,72.77
2023-02-03T23:44:37.316Z,73.26
2023-02-03T23:49:40.713Z,72.78
2023-02-03T23:54:44.157Z,72.69
2023-02-03T23:59:49.314Z,73.40
